DeKalb Peachtree Airport
KPDK : now visible

Airfield :











YOU CAN JOIN US ON...

 
LOGIN :

Register | Disclaimer

   EN    FR    IT 

 









Legend :    VFR   Marginal VFR   IFR   Intensive IFR   Very Intensive IFR
Visi :
Ceiling :
>= 8 km
>= 3000ft
5 to 8 km
1000 to 3000 ft
1500m to 5 km
500 to 1000 ft
800 to 1500m
200 to 500 ft
< 800m
< 200 ft
Symbols :   Thunderstorms  Fog  Heavy snow  Heavy precipitations  Wind > 20 kt







- Airport Elevation : 1003 ft


KPDK - DeKalb Peachtree

CURRENT METAR :
  • 211653Z VRB04KT 10SM FEW043 27/14 A3031 RMK AO2 SLP249 T02670144

EXPIRED METARs :
  • 211553Z VRB05KT 10SM CLR 26/17 A3032 RMK AO2 SLP254 T02610172
  • 211453Z 10SM CLR 24/17 A3034 RMK AO2 SLP263 T02390172 50003

TAF KPDK
Valid from the 21 at 12:00 until the 22 at 12:00 UTC


211135Z 2112/2212 00000KT P6SM SKC
FM211600 14004KT P6SM SKC
FM211900 12005KT P6SM FEW050
FM220100 00000KT P6SM SKC
No reported NOTAMs for that airfield.



MET'MAP, your aeronautical weather chart ! - Copyright ORBIFLY December 2007 - Disclaimer

ORBIFLY MET'MAP TEAM :

Programming & Development : Alexandra Zaïnal
Concept & Development : Baudouin d'Aumeries
Co-Development & Prog : Marc-Olivier Méhu
Technical & hardware support : Manuel Goepfert

Contact : metmap@orbifly.com




SOURCES & CREDITS :

   NOAA       Earth
Advisory